sensor_id;sensor_type;location;lat;lon;timestamp;temperature;humidity
5697;DHT22;2873;50.966;7.210;2023-04-03T00:00:57;4.80;99.90
5697;DHT22;2873;50.966;7.210;2023-04-03T00:03:23;4.80;99.90
5697;DHT22;2873;50.966;7.210;2023-04-03T00:05:48;4.80;99.90
5697;DHT22;2873;50.966;7.210;2023-04-03T00:08:14;4.80;99.90
5697;DHT22;2873;50.966;7.210;2023-04-03T00:10:41;4.70;99.90
5697;DHT22;2873;50.966;7.210;2023-04-03T00:13:07;4.60;99.90
5697;DHT22;2873;50.966;7.210;2023-04-03T00:15:34;4.60;99.90
5697;DHT22;2873;50.966;7.210;2023-04-03T00:18:00;4.60;99.90
5697;DHT22;2873;50.966;7.210;2023-04-03T00:20:25;4.60;99.90
5697;DHT22;2873;50.966;7.210;2023-04-03T00:22:52;4.60;99.90
5697;DHT22;2873;50.966;7.210;2023-04-03T00:25:18;4.60;99.90
5697;DHT22;2873;50.966;7.210;2023-04-03T00:27:43;4.60;99.90
5697;DHT22;2873;50.966;7.210;2023-04-03T00:30:48;4.60;99.90
5697;DHT22;2873;50.966;7.210;2023-04-03T00:33:14;4.70;99.90
5697;DHT22;2873;50.966;7.210;2023-04-03T00:35:40;4.70;99.90
5697;DHT22;2873;50.966;7.210;2023-04-03T00:38:06;4.70;99.90
5697;DHT22;2873;50.966;7.210;2023-04-03T00:40:38;4.60;99.90
5697;DHT22;2873;50.966;7.210;2023-04-03T00:43:11;4.70;99.90
5697;DHT22;2873;50.966;7.210;2023-04-03T00:45:40;4.70;99.90
5697;DHT22;2873;50.966;7.210;2023-04-03T00:48:10;4.80;99.90
5697;DHT22;2873;50.966;7.210;2023-04-03T00:50:38;4.80;99.90
5697;DHT22;2873;50.966;7.210;2023-04-03T00:53:05;4.80;99.90
5697;DHT22;2873;50.966;7.210;2023-04-03T00:55:32;4.80;99.90
5697;DHT22;2873;50.966;7.210;2023-04-03T00:57:59;4.70;99.90
5697;DHT22;2873;50.966;7.210;2023-04-03T01:00:26;4.80;99.90
5697;DHT22;2873;50.966;7.210;2023-04-03T01:02:52;4.70;99.90
5697;DHT22;2873;50.966;7.210;2023-04-03T01:05:19;4.70;99.90
5697;DHT22;2873;50.966;7.210;2023-04-03T01:07:46;4.70;99.90
5697;DHT22;2873;50.966;7.210;2023-04-03T01:10:15;4.70;99.90
5697;DHT22;2873;50.966;7.210;2023-04-03T01:12:43;4.70;99.90
5697;DHT22;2873;50.966;7.210;2023-04-03T01:15:16;4.60;99.90
5697;DHT22;2873;50.966;7.210;2023-04-03T01:17:48;4.60;99.90
5697;DHT22;2873;50.966;7.210;2023-04-03T01:25:31;4.50;99.90
5697;DHT22;2873;50.966;7.210;2023-04-03T01:27:57;4.50;99.90
5697;DHT22;2873;50.966;7.210;2023-04-03T01:30:28;4.50;99.90
5697;DHT22;2873;50.966;7.210;2023-04-03T01:32:58;4.40;99.90
5697;DHT22;2873;50.966;7.210;2023-04-03T01:35:24;4.40;99.90
5697;DHT22;2873;50.966;7.210;2023-04-03T01:37:50;4.30;99.90
5697;DHT22;2873;50.966;7.210;2023-04-03T01:40:15;4.30;99.90
5697;DHT22;2873;50.966;7.210;2023-04-03T01:42:41;4.20;99.90
5697;DHT22;2873;50.966;7.210;2023-04-03T01:45:07;4.20;99.90
5697;DHT22;2873;50.966;7.210;2023-04-03T01:47:32;4.20;99.90
5697;DHT22;2873;50.966;7.210;2023-04-03T01:49:58;4.20;99.90
5697;DHT22;2873;50.966;7.210;2023-04-03T01:52:23;4.10;99.90
5697;DHT22;2873;50.966;7.210;2023-04-03T01:54:49;4.10;99.90
5697;DHT22;2873;50.966;7.210;2023-04-03T01:57:16;4.10;99.90
5697;DHT22;2873;50.966;7.210;2023-04-03T01:59:41;4.00;99.90
5697;DHT22;2873;50.966;7.210;2023-04-03T02:02:07;4.00;99.90
5697;DHT22;2873;50.966;7.210;2023-04-03T02:04:32;4.00;99.90
5697;DHT22;2873;50.966;7.210;2023-04-03T02:06:58;3.90;99.90
5697;DHT22;2873;50.966;7.210;2023-04-03T02:09:23;3.90;99.90
5697;DHT22;2873;50.966;7.210;2023-04-03T02:11:49;3.90;99.90
5697;DHT22;2873;50.966;7.210;2023-04-03T02:14:15;3.80;99.90
5697;DHT22;2873;50.966;7.210;2023-04-03T02:16:40;3.80;99.90
5697;DHT22;2873;50.966;7.210;2023-04-03T02:19:06;3.80;99.90
5697;DHT22;2873;50.966;7.210;2023-04-03T02:21:32;3.70;99.90
5697;DHT22;2873;50.966;7.210;2023-04-03T02:23:57;3.70;99.90
5697;DHT22;2873;50.966;7.210;2023-04-03T02:26:23;3.70;99.90
5697;DHT22;2873;50.966;7.210;2023-04-03T02:28:48;3.60;99.90
5697;DHT22;2873;50.966;7.210;2023-04-03T02:31:14;3.50;99.90
5697;DHT22;2873;50.966;7.210;2023-04-03T02:33:40;3.60;99.90
5697;DHT22;2873;50.966;7.210;2023-04-03T02:36:06;3.60;99.90
5697;DHT22;2873;50.966;7.210;2023-04-03T02:38:32;3.50;99.90
5697;DHT22;2873;50.966;7.210;2023-04-03T02:41:06;3.50;99.90
5697;DHT22;2873;50.966;7.210;2023-04-03T02:43:33;3.40;99.90
5697;DHT22;2873;50.966;7.210;2023-04-03T02:45:58;3.40;99.90
5697;DHT22;2873;50.966;7.210;2023-04-03T02:48:24;3.40;99.90
5697;DHT22;2873;50.966;7.210;2023-04-03T02:50:51;3.40;99.90
5697;DHT22;2873;50.966;7.210;2023-04-03T02:53:16;3.40;99.90
5697;DHT22;2873;50.966;7.210;2023-04-03T02:55:42;3.30;99.90
5697;DHT22;2873;50.966;7.210;2023-04-03T02:58:07;3.30;99.90
5697;DHT22;2873;50.966;7.210;2023-04-03T03:00:34;3.30;99.90
5697;DHT22;2873;50.966;7.210;2023-04-03T03:02:59;3.30;99.90
5697;DHT22;2873;50.966;7.210;2023-04-03T03:05:26;3.30;99.90
5697;DHT22;2873;50.966;7.210;2023-04-03T03:07:52;3.30;99.90
5697;DHT22;2873;50.966;7.210;2023-04-03T03:10:18;3.20;99.90
5697;DHT22;2873;50.966;7.210;2023-04-03T03:12:44;3.20;99.90
5697;DHT22;2873;50.966;7.210;2023-04-03T03:15:10;3.20;99.90
5697;DHT22;2873;50.966;7.210;2023-04-03T03:17:35;3.10;99.90
5697;DHT22;2873;50.966;7.210;2023-04-03T03:20:02;3.20;99.90
5697;DHT22;2873;50.966;7.210;2023-04-03T03:22:28;3.10;99.90
5697;DHT22;2873;50.966;7.210;2023-04-03T03:24:54;3.20;99.90
5697;DHT22;2873;50.966;7.210;2023-04-03T03:27:20;3.20;99.90
5697;DHT22;2873;50.966;7.210;2023-04-03T03:29:46;3.20;99.90
5697;DHT22;2873;50.966;7.210;2023-04-03T03:32:12;3.20;99.90
5697;DHT22;2873;50.966;7.210;2023-04-03T03:34:37;3.10;99.90
5697;DHT22;2873;50.966;7.210;2023-04-03T03:37:03;3.10;99.90
5697;DHT22;2873;50.966;7.210;2023-04-03T03:39:28;3.10;99.90
5697;DHT22;2873;50.966;7.210;2023-04-03T03:41:54;3.10;99.90
5697;DHT22;2873;50.966;7.210;2023-04-03T03:44:20;3.10;99.90
5697;DHT22;2873;50.966;7.210;2023-04-03T03:46:46;3.10;99.90
5697;DHT22;2873;50.966;7.210;2023-04-03T03:49:12;3.10;99.90
5697;DHT22;2873;50.966;7.210;2023-04-03T03:51:38;3.20;99.90
5697;DHT22;2873;50.966;7.210;2023-04-03T03:54:05;3.20;99.90
5697;DHT22;2873;50.966;7.210;2023-04-03T03:56:31;3.10;99.90
5697;DHT22;2873;50.966;7.210;2023-04-03T03:58:56;3.10;99.90
5697;DHT22;2873;50.966;7.210;2023-04-03T04:01:23;3.10;99.90
5697;DHT22;2873;50.966;7.210;2023-04-03T04:03:49;3.20;99.90
5697;DHT22;2873;50.966;7.210;2023-04-03T04:06:15;3.10;99.90
5697;DHT22;2873;50.966;7.210;2023-04-03T04:08:41;3.10;99.90
5697;DHT22;2873;50.966;7.210;2023-04-03T04:11:07;3.10;99.90
5697;DHT22;2873;50.966;7.210;2023-04-03T04:13:33;3.10;99.90
5697;DHT22;2873;50.966;7.210;2023-04-03T04:15:58;3.10;99.90
5697;DHT22;2873;50.966;7.210;2023-04-03T04:18:24;3.10;99.90
5697;DHT22;2873;50.966;7.210;2023-04-03T04:20:49;3.10;99.90
5697;DHT22;2873;50.966;7.210;2023-04-03T04:23:16;3.10;99.90
5697;DHT22;2873;50.966;7.210;2023-04-03T04:25:45;3.00;99.90
5697;DHT22;2873;50.966;7.210;2023-04-03T04:28:11;3.10;99.90
5697;DHT22;2873;50.966;7.210;2023-04-03T04:30:37;3.00;99.90
5697;DHT22;2873;50.966;7.210;2023-04-03T04:33:02;3.00;99.90
5697;DHT22;2873;50.966;7.210;2023-04-03T04:35:28;3.00;99.90
5697;DHT22;2873;50.966;7.210;2023-04-03T04:37:54;3.00;99.90
5697;DHT22;2873;50.966;7.210;2023-04-03T04:40:20;3.00;99.90
5697;DHT22;2873;50.966;7.210;2023-04-03T04:42:46;3.00;99.90
5697;DHT22;2873;50.966;7.210;2023-04-03T04:45:11;2.90;99.90
5697;DHT22;2873;50.966;7.210;2023-04-03T04:47:37;2.90;99.90
5697;DHT22;2873;50.966;7.210;2023-04-03T04:50:02;3.00;99.90
5697;DHT22;2873;50.966;7.210;2023-04-03T04:52:28;2.90;99.90
5697;DHT22;2873;50.966;7.210;2023-04-03T04:54:54;2.90;99.90
5697;DHT22;2873;50.966;7.210;2023-04-03T04:57:19;2.90;99.90
5697;DHT22;2873;50.966;7.210;2023-04-03T04:59:45;2.90;99.90
5697;DHT22;2873;50.966;7.210;2023-04-03T05:02:10;2.90;99.90
5697;DHT22;2873;50.966;7.210;2023-04-03T05:04:36;2.90;99.90
5697;DHT22;2873;50.966;7.210;2023-04-03T05:07:01;2.90;99.90
5697;DHT22;2873;50.966;7.210;2023-04-03T05:09:27;2.90;99.90
5697;DHT22;2873;50.966;7.210;2023-04-03T05:11:53;2.90;99.90
5697;DHT22;2873;50.966;7.210;2023-04-03T05:14:18;2.90;99.90
5697;DHT22;2873;50.966;7.210;2023-04-03T05:16:44;3.00;99.90
5697;DHT22;2873;50.966;7.210;2023-04-03T05:19:09;3.00;99.90
5697;DHT22;2873;50.966;7.210;2023-04-03T05:21:35;2.90;99.90
5697;DHT22;2873;50.966;7.210;2023-04-03T05:24:01;2.90;99.90
5697;DHT22;2873;50.966;7.210;2023-04-03T05:26:29;3.00;99.90
5697;DHT22;2873;50.966;7.210;2023-04-03T05:28:55;2.90;99.90
5697;DHT22;2873;50.966;7.210;2023-04-03T05:31:20;3.00;99.90
5697;DHT22;2873;50.966;7.210;2023-04-03T05:33:46;3.00;99.90
5697;DHT22;2873;50.966;7.210;2023-04-03T05:36:12;3.00;99.90
5697;DHT22;2873;50.966;7.210;2023-04-03T05:38:38;3.00;99.90
5697;DHT22;2873;50.966;7.210;2023-04-03T05:41:03;3.00;99.90
5697;DHT22;2873;50.966;7.210;2023-04-03T05:43:29;3.00;99.90
5697;DHT22;2873;50.966;7.210;2023-04-03T05:45:54;3.00;99.90
5697;DHT22;2873;50.966;7.210;2023-04-03T05:48:20;3.00;99.90
5697;DHT22;2873;50.966;7.210;2023-04-03T05:50:46;3.10;99.90
5697;DHT22;2873;50.966;7.210;2023-04-03T05:53:21;3.10;99.90
5697;DHT22;2873;50.966;7.210;2023-04-03T05:55:49;3.10;99.90
5697;DHT22;2873;50.966;7.210;2023-04-03T05:58:14;3.10;99.90
5697;DHT22;2873;50.966;7.210;2023-04-03T06:00:40;3.10;99.90
5697;DHT22;2873;50.966;7.210;2023-04-03T06:03:05;3.10;99.90
5697;DHT22;2873;50.966;7.210;2023-04-03T06:05:31;3.20;99.90
5697;DHT22;2873;50.966;7.210;2023-04-03T06:11:19;3.20;99.90
5697;DHT22;2873;50.966;7.210;2023-04-03T06:13:44;3.30;99.90
5697;DHT22;2873;50.966;7.210;2023-04-03T06:16:14;3.30;99.90
5697;DHT22;2873;50.966;7.210;2023-04-03T06:18:40;3.20;99.90
5697;DHT22;2873;50.966;7.210;2023-04-03T06:21:06;3.30;99.90
5697;DHT22;2873;50.966;7.210;2023-04-03T06:23:33;3.40;99.90
5697;DHT22;2873;50.966;7.210;2023-04-03T06:29:21;3.50;99.90
5697;DHT22;2873;50.966;7.210;2023-04-03T06:31:47;3.50;99.90
5697;DHT22;2873;50.966;7.210;2023-04-03T06:34:13;3.50;99.90
5697;DHT22;2873;50.966;7.210;2023-04-03T06:36:39;3.60;99.90
5697;DHT22;2873;50.966;7.210;2023-04-03T06:39:05;3.60;99.90
5697;DHT22;2873;50.966;7.210;2023-04-03T06:41:32;3.70;99.90
5697;DHT22;2873;50.966;7.210;2023-04-03T06:43:58;3.80;99.90
5697;DHT22;2873;50.966;7.210;2023-04-03T06:46:25;3.80;99.90
5697;DHT22;2873;50.966;7.210;2023-04-03T06:48:51;3.90;99.90
5697;DHT22;2873;50.966;7.210;2023-04-03T06:51:25;4.00;99.90
5697;DHT22;2873;50.966;7.210;2023-04-03T06:53:52;4.10;99.90
5697;DHT22;2873;50.966;7.210;2023-04-03T06:56:19;4.20;99.90
5697;DHT22;2873;50.966;7.210;2023-04-03T06:58:45;4.20;99.90
5697;DHT22;2873;50.966;7.210;2023-04-03T07:01:13;4.30;99.90
5697;DHT22;2873;50.966;7.210;2023-04-03T07:03:39;4.30;99.90
5697;DHT22;2873;50.966;7.210;2023-04-03T07:06:06;4.40;99.90
5697;DHT22;2873;50.966;7.210;2023-04-03T07:08:33;4.40;99.90
5697;DHT22;2873;50.966;7.210;2023-04-03T07:10:58;4.40;99.90
5697;DHT22;2873;50.966;7.210;2023-04-03T07:13:24;4.40;99.90
5697;DHT22;2873;50.966;7.210;2023-04-03T07:15:50;4.40;99.90
5697;DHT22;2873;50.966;7.210;2023-04-03T07:18:16;4.50;99.90
5697;DHT22;2873;50.966;7.210;2023-04-03T07:20:45;4.40;99.90
5697;DHT22;2873;50.966;7.210;2023-04-03T07:23:11;4.60;99.90
5697;DHT22;2873;50.966;7.210;2023-04-03T07:25:41;4.70;99.90
5697;DHT22;2873;50.966;7.210;2023-04-03T07:28:07;4.80;99.90
5697;DHT22;2873;50.966;7.210;2023-04-03T07:30:33;4.80;99.90
5697;DHT22;2873;50.966;7.210;2023-04-03T07:32:59;4.90;99.90
5697;DHT22;2873;50.966;7.210;2023-04-03T07:35:24;4.90;99.90
5697;DHT22;2873;50.966;7.210;2023-04-03T07:37:50;5.00;99.90
5697;DHT22;2873;50.966;7.210;2023-04-03T07:40:16;5.10;99.90
5697;DHT22;2873;50.966;7.210;2023-04-03T07:42:41;5.10;99.90
5697;DHT22;2873;50.966;7.210;2023-04-03T07:45:07;5.10;99.90
5697;DHT22;2873;50.966;7.210;2023-04-03T07:47:33;5.20;99.90
5697;DHT22;2873;50.966;7.210;2023-04-03T07:49:59;5.20;99.90
5697;DHT22;2873;50.966;7.210;2023-04-03T07:52:24;5.30;99.90
5697;DHT22;2873;50.966;7.210;2023-04-03T07:54:50;5.40;99.90
5697;DHT22;2873;50.966;7.210;2023-04-03T07:57:16;5.60;99.90
5697;DHT22;2873;50.966;7.210;2023-04-03T07:59:42;5.60;99.90
5697;DHT22;2873;50.966;7.210;2023-04-03T08:02:12;5.80;99.90
5697;DHT22;2873;50.966;7.210;2023-04-03T08:04:37;5.80;99.90
5697;DHT22;2873;50.966;7.210;2023-04-03T08:07:03;5.90;99.90
5697;DHT22;2873;50.966;7.210;2023-04-03T08:09:29;5.90;99.90
5697;DHT22;2873;50.966;7.210;2023-04-03T08:11:54;6.00;99.90
5697;DHT22;2873;50.966;7.210;2023-04-03T08:14:20;5.90;99.90
5697;DHT22;2873;50.966;7.210;2023-04-03T08:16:47;5.70;99.90
5697;DHT22;2873;50.966;7.210;2023-04-03T08:19:14;5.60;99.90
5697;DHT22;2873;50.966;7.210;2023-04-03T08:21:41;5.60;99.90
5697;DHT22;2873;50.966;7.210;2023-04-03T08:24:07;5.90;99.90
5697;DHT22;2873;50.966;7.210;2023-04-03T08:26:33;5.90;99.90
5697;DHT22;2873;50.966;7.210;2023-04-03T08:28:59;6.00;99.90
5697;DHT22;2873;50.966;7.210;2023-04-03T08:31:24;6.10;99.90
5697;DHT22;2873;50.966;7.210;2023-04-03T08:33:50;6.10;99.90
5697;DHT22;2873;50.966;7.210;2023-04-03T08:36:19;6.20;99.90
5697;DHT22;2873;50.966;7.210;2023-04-03T08:38:45;6.20;99.90
5697;DHT22;2873;50.966;7.210;2023-04-03T08:44:04;6.50;99.90
5697;DHT22;2873;50.966;7.210;2023-04-03T08:49:10;6.60;99.90
5697;DHT22;2873;50.966;7.210;2023-04-03T08:51:42;6.70;99.90
5697;DHT22;2873;50.966;7.210;2023-04-03T08:54:31;6.70;99.90
5697;DHT22;2873;50.966;7.210;2023-04-03T08:57:00;6.90;99.90
5697;DHT22;2873;50.966;7.210;2023-04-03T08:59:30;7.00;99.90
5697;DHT22;2873;50.966;7.210;2023-04-03T09:02:00;7.20;99.90
5697;DHT22;2873;50.966;7.210;2023-04-03T09:04:28;7.30;99.90
5697;DHT22;2873;50.966;7.210;2023-04-03T09:07:09;7.50;99.90
5697;DHT22;2873;50.966;7.210;2023-04-03T09:09:41;7.60;99.90
5697;DHT22;2873;50.966;7.210;2023-04-03T09:12:29;7.80;99.90
5697;DHT22;2873;50.966;7.210;2023-04-03T09:15:10;7.90;99.90
5697;DHT22;2873;50.966;7.210;2023-04-03T09:17:46;8.00;99.90
5697;DHT22;2873;50.966;7.210;2023-04-03T09:20:41;8.10;99.90
5697;DHT22;2873;50.966;7.210;2023-04-03T09:23:30;8.30;99.90
5697;DHT22;2873;50.966;7.210;2023-04-03T09:26:02;8.30;99.90
5697;DHT22;2873;50.966;7.210;2023-04-03T09:28:33;8.30;99.90
5697;DHT22;2873;50.966;7.210;2023-04-03T09:31:00;8.50;99.90
5697;DHT22;2873;50.966;7.210;2023-04-03T09:33:28;8.50;99.90
5697;DHT22;2873;50.966;7.210;2023-04-03T09:35:55;8.30;99.90
5697;DHT22;2873;50.966;7.210;2023-04-03T09:38:21;8.30;99.90
5697;DHT22;2873;50.966;7.210;2023-04-03T09:40:48;8.40;99.90
5697;DHT22;2873;50.966;7.210;2023-04-03T09:45:44;8.60;99.90
5697;DHT22;2873;50.966;7.210;2023-04-03T09:53:37;8.80;99.90
5697;DHT22;2873;50.966;7.210;2023-04-03T09:58:43;9.00;99.90
5697;DHT22;2873;50.966;7.210;2023-04-03T10:01:38;9.10;99.90
5697;DHT22;2873;50.966;7.210;2023-04-03T10:06:56;9.40;99.90
5697;DHT22;2873;50.966;7.210;2023-04-03T10:09:30;9.60;99.90
5697;DHT22;2873;50.966;7.210;2023-04-03T10:12:05;9.80;99.90
5697;DHT22;2873;50.966;7.210;2023-04-03T10:14:59;9.90;99.90
5697;DHT22;2873;50.966;7.210;2023-04-03T10:17:53;9.90;99.90
5697;DHT22;2873;50.966;7.210;2023-04-03T10:20:46;10.10;99.90
5697;DHT22;2873;50.966;7.210;2023-04-03T10:23:24;9.80;97.70
5697;DHT22;2873;50.966;7.210;2023-04-03T10:26:12;9.90;98.20
5697;DHT22;2873;50.966;7.210;2023-04-03T10:31:28;9.90;97.10
5697;DHT22;2873;50.966;7.210;2023-04-03T10:34:24;10.00;96.30
5697;DHT22;2873;50.966;7.210;2023-04-03T10:37:01;9.90;95.80
5697;DHT22;2873;50.966;7.210;2023-04-03T10:47:31;10.20;93.90
5697;DHT22;2873;50.966;7.210;2023-04-03T10:53:34;10.90;94.90
5697;DHT22;2873;50.966;7.210;2023-04-03T10:56:24;11.00;93.00
5697;DHT22;2873;50.966;7.210;2023-04-03T10:59:02;11.80;94.50
5697;DHT22;2873;50.966;7.210;2023-04-03T11:01:35;12.10;93.20
5697;DHT22;2873;50.966;7.210;2023-04-03T11:04:04;12.80;93.50
5697;DHT22;2873;50.966;7.210;2023-04-03T11:06:38;13.20;91.70
5697;DHT22;2873;50.966;7.210;2023-04-03T11:11:39;14.30;90.80
5697;DHT22;2873;50.966;7.210;2023-04-03T11:16:45;15.40;88.90
5697;DHT22;2873;50.966;7.210;2023-04-03T11:19:24;15.40;84.80
5697;DHT22;2873;50.966;7.210;2023-04-03T11:21:57;15.90;85.10
5697;DHT22;2873;50.966;7.210;2023-04-03T11:24:29;15.80;83.30
5697;DHT22;2873;50.966;7.210;2023-04-03T11:26:57;15.40;79.40
5697;DHT22;2873;50.966;7.210;2023-04-03T11:29:37;16.00;81.00
5697;DHT22;2873;50.966;7.210;2023-04-03T11:32:32;16.50;82.10
5697;DHT22;2873;50.966;7.210;2023-04-03T11:35:05;17.50;81.50
5697;DHT22;2873;50.966;7.210;2023-04-03T11:37:43;18.10;81.00
5697;DHT22;2873;50.966;7.210;2023-04-03T11:42:52;19.40;76.90
5697;DHT22;2873;50.966;7.210;2023-04-03T12:08:47;21.50;63.40
5697;DHT22;2873;50.966;7.210;2023-04-03T12:18:59;24.80;60.50
5697;DHT22;2873;50.966;7.210;2023-04-03T12:32:06;26.90;57.20
5697;DHT22;2873;50.966;7.210;2023-04-03T12:35:03;26.60;56.20
5697;DHT22;2873;50.966;7.210;2023-04-03T12:51:15;31.60;53.10
5697;DHT22;2873;50.966;7.210;2023-04-03T12:53:42;31.50;51.60
5697;DHT22;2873;50.966;7.210;2023-04-03T12:56:38;32.00;52.50
5697;DHT22;2873;50.966;7.210;2023-04-03T12:59:16;31.10;50.50
5697;DHT22;2873;50.966;7.210;2023-04-03T13:01:44;31.10;49.70
5697;DHT22;2873;50.966;7.210;2023-04-03T13:04:17;31.90;50.50
5697;DHT22;2873;50.966;7.210;2023-04-03T13:06:44;31.50;50.30
5697;DHT22;2873;50.966;7.210;2023-04-03T13:09:24;31.50;50.60
5697;DHT22;2873;50.966;7.210;2023-04-03T13:11:59;32.10;50.00
5697;DHT22;2873;50.966;7.210;2023-04-03T13:14:27;32.70;48.40
5697;DHT22;2873;50.966;7.210;2023-04-03T13:17:10;32.70;49.90
5697;DHT22;2873;50.966;7.210;2023-04-03T13:19:38;32.10;47.70
5697;DHT22;2873;50.966;7.210;2023-04-03T13:22:07;32.00;48.00
5697;DHT22;2873;50.966;7.210;2023-04-03T13:24:37;31.80;47.60
5697;DHT22;2873;50.966;7.210;2023-04-03T13:27:09;31.90;48.00
5697;DHT22;2873;50.966;7.210;2023-04-03T13:29:37;32.00;47.70
5697;DHT22;2873;50.966;7.210;2023-04-03T13:32:04;31.40;47.80
5697;DHT22;2873;50.966;7.210;2023-04-03T13:34:40;31.10;47.60
5697;DHT22;2873;50.966;7.210;2023-04-03T13:37:11;30.10;47.30
5697;DHT22;2873;50.966;7.210;2023-04-03T13:39:56;29.60;47.90
5697;DHT22;2873;50.966;7.210;2023-04-03T13:42:28;29.50;48.60
5697;DHT22;2873;50.966;7.210;2023-04-03T13:45:24;28.70;47.60
5697;DHT22;2873;50.966;7.210;2023-04-03T13:48:05;28.50;48.40
5697;DHT22;2873;50.966;7.210;2023-04-03T13:50:31;28.30;48.10
5697;DHT22;2873;50.966;7.210;2023-04-03T13:53:11;28.00;48.30
5697;DHT22;2873;50.966;7.210;2023-04-03T13:55:53;27.90;48.40
5697;DHT22;2873;50.966;7.210;2023-04-03T13:58:29;28.30;48.30
5697;DHT22;2873;50.966;7.210;2023-04-03T14:01:18;27.70;49.50
5697;DHT22;2873;50.966;7.210;2023-04-03T14:03:58;26.80;49.20
5697;DHT22;2873;50.966;7.210;2023-04-03T14:06:25;25.80;48.90
5697;DHT22;2873;50.966;7.210;2023-04-03T14:08:51;25.50;49.70
5697;DHT22;2873;50.966;7.210;2023-04-03T14:11:26;25.20;49.70
5697;DHT22;2873;50.966;7.210;2023-04-03T14:13:53;24.80;50.00
5697;DHT22;2873;50.966;7.210;2023-04-03T14:16:21;24.00;51.10
5697;DHT22;2873;50.966;7.210;2023-04-03T14:18:48;22.20;49.60
5697;DHT22;2873;50.966;7.210;2023-04-03T14:21:15;22.00;50.60
5697;DHT22;2873;50.966;7.210;2023-04-03T14:23:42;21.40;50.60
5697;DHT22;2873;50.966;7.210;2023-04-03T14:26:22;21.20;52.60
5697;DHT22;2873;50.966;7.210;2023-04-03T14:28:51;21.10;52.40
5697;DHT22;2873;50.966;7.210;2023-04-03T14:31:17;20.60;52.50
5697;DHT22;2873;50.966;7.210;2023-04-03T14:33:43;20.70;54.50
5697;DHT22;2873;50.966;7.210;2023-04-03T14:36:18;20.20;53.90
5697;DHT22;2873;50.966;7.210;2023-04-03T14:38:46;19.80;53.90
5697;DHT22;2873;50.966;7.210;2023-04-03T14:41:14;19.40;54.40
5697;DHT22;2873;50.966;7.210;2023-04-03T14:43:40;19.30;54.80
5697;DHT22;2873;50.966;7.210;2023-04-03T14:46:20;19.20;54.80
5697;DHT22;2873;50.966;7.210;2023-04-03T14:48:46;18.80;54.80
5697;DHT22;2873;50.966;7.210;2023-04-03T14:51:13;18.60;55.30
5697;DHT22;2873;50.966;7.210;2023-04-03T14:53:40;18.40;55.20
5697;DHT22;2873;50.966;7.210;2023-04-03T14:56:36;18.50;55.10
5697;DHT22;2873;50.966;7.210;2023-04-03T14:59:02;18.20;54.90
5697;DHT22;2873;50.966;7.210;2023-04-03T15:01:53;17.80;54.40
5697;DHT22;2873;50.966;7.210;2023-04-03T15:04:20;17.70;55.50
5697;DHT22;2873;50.966;7.210;2023-04-03T15:06:47;17.70;55.70
5697;DHT22;2873;50.966;7.210;2023-04-03T15:09:31;17.40;55.00
5697;DHT22;2873;50.966;7.210;2023-04-03T15:11:57;17.20;55.20
5697;DHT22;2873;50.966;7.210;2023-04-03T15:14:23;17.00;55.60
5697;DHT22;2873;50.966;7.210;2023-04-03T15:16:48;16.30;55.00
5697;DHT22;2873;50.966;7.210;2023-04-03T15:19:14;16.10;55.90
5697;DHT22;2873;50.966;7.210;2023-04-03T15:21:47;16.10;57.60
5697;DHT22;2873;50.966;7.210;2023-04-03T15:24:12;15.90;57.70
5697;DHT22;2873;50.966;7.210;2023-04-03T15:26:38;16.00;58.00
5697;DHT22;2873;50.966;7.210;2023-04-03T15:29:04;15.90;58.30
5697;DHT22;2873;50.966;7.210;2023-04-03T15:31:30;15.70;58.10
5697;DHT22;2873;50.966;7.210;2023-04-03T15:33:56;15.70;58.80
5697;DHT22;2873;50.966;7.210;2023-04-03T15:36:22;15.10;57.40
5697;DHT22;2873;50.966;7.210;2023-04-03T15:38:47;15.30;58.30
5697;DHT22;2873;50.966;7.210;2023-04-03T15:41:14;15.10;59.30
5697;DHT22;2873;50.966;7.210;2023-04-03T15:43:40;15.20;59.40
5697;DHT22;2873;50.966;7.210;2023-04-03T15:46:06;15.20;59.60
5697;DHT22;2873;50.966;7.210;2023-04-03T15:48:31;15.30;59.80
5697;DHT22;2873;50.966;7.210;2023-04-03T15:50:57;15.30;60.30
5697;DHT22;2873;50.966;7.210;2023-04-03T15:53:23;15.30;60.60
5697;DHT22;2873;50.966;7.210;2023-04-03T15:55:48;15.30;60.30
5697;DHT22;2873;50.966;7.210;2023-04-03T15:58:14;15.50;60.90
5697;DHT22;2873;50.966;7.210;2023-04-03T16:00:40;15.30;59.60
5697;DHT22;2873;50.966;7.210;2023-04-03T16:03:09;15.30;60.10
5697;DHT22;2873;50.966;7.210;2023-04-03T16:05:37;15.30;60.00
5697;DHT22;2873;50.966;7.210;2023-04-03T16:08:03;15.30;60.20
5697;DHT22;2873;50.966;7.210;2023-04-03T16:10:29;15.20;60.80
5697;DHT22;2873;50.966;7.210;2023-04-03T16:12:54;15.20;60.60
5697;DHT22;2873;50.966;7.210;2023-04-03T16:15:20;15.20;61.00
5697;DHT22;2873;50.966;7.210;2023-04-03T16:17:45;14.80;59.00
5697;DHT22;2873;50.966;7.210;2023-04-03T16:20:13;14.80;60.00
5697;DHT22;2873;50.966;7.210;2023-04-03T16:22:39;14.60;60.40
5697;DHT22;2873;50.966;7.210;2023-04-03T16:25:07;14.70;60.50
5697;DHT22;2873;50.966;7.210;2023-04-03T16:27:33;14.70;60.50
5697;DHT22;2873;50.966;7.210;2023-04-03T16:29:59;14.60;60.40
5697;DHT22;2873;50.966;7.210;2023-04-03T16:32:27;14.60;60.50
5697;DHT22;2873;50.966;7.210;2023-04-03T16:34:54;14.50;61.40
5697;DHT22;2873;50.966;7.210;2023-04-03T16:37:19;14.30;61.20
5697;DHT22;2873;50.966;7.210;2023-04-03T16:39:45;14.40;61.90
5697;DHT22;2873;50.966;7.210;2023-04-03T16:42:11;14.20;61.60
5697;DHT22;2873;50.966;7.210;2023-04-03T16:44:37;14.20;61.50
5697;DHT22;2873;50.966;7.210;2023-04-03T16:47:03;14.10;62.10
5697;DHT22;2873;50.966;7.210;2023-04-03T16:49:29;13.90;62.10
5697;DHT22;2873;50.966;7.210;2023-04-03T16:51:58;13.90;62.20
5697;DHT22;2873;50.966;7.210;2023-04-03T16:54:24;13.80;62.20
5697;DHT22;2873;50.966;7.210;2023-04-03T16:56:49;13.80;62.60
5697;DHT22;2873;50.966;7.210;2023-04-03T16:59:15;13.70;63.00
5697;DHT22;2873;50.966;7.210;2023-04-03T17:01:41;13.70;63.80
5697;DHT22;2873;50.966;7.210;2023-04-03T17:04:06;13.50;62.50
5697;DHT22;2873;50.966;7.210;2023-04-03T17:06:32;13.40;62.80
5697;DHT22;2873;50.966;7.210;2023-04-03T17:08:58;13.40;62.80
5697;DHT22;2873;50.966;7.210;2023-04-03T17:11:23;13.30;63.30
5697;DHT22;2873;50.966;7.210;2023-04-03T17:13:49;13.20;63.30
5697;DHT22;2873;50.966;7.210;2023-04-03T17:16:15;13.10;64.50
5697;DHT22;2873;50.966;7.210;2023-04-03T17:18:41;13.10;64.30
5697;DHT22;2873;50.966;7.210;2023-04-03T17:21:11;12.90;63.80
5697;DHT22;2873;50.966;7.210;2023-04-03T17:23:37;12.80;64.00
5697;DHT22;2873;50.966;7.210;2023-04-03T17:26:07;12.70;63.90
5697;DHT22;2873;50.966;7.210;2023-04-03T17:28:32;12.60;64.40
5697;DHT22;2873;50.966;7.210;2023-04-03T17:30:59;12.50;64.70
5697;DHT22;2873;50.966;7.210;2023-04-03T17:33:26;12.50;65.50
5697;DHT22;2873;50.966;7.210;2023-04-03T17:35:55;12.30;65.10
5697;DHT22;2873;50.966;7.210;2023-04-03T17:38:20;12.30;65.60
5697;DHT22;2873;50.966;7.210;2023-04-03T17:40:46;12.10;65.70
5697;DHT22;2873;50.966;7.210;2023-04-03T17:43:11;12.00;65.60
5697;DHT22;2873;50.966;7.210;2023-04-03T17:45:37;11.90;65.70
5697;DHT22;2873;50.966;7.210;2023-04-03T17:48:04;11.80;65.90
5697;DHT22;2873;50.966;7.210;2023-04-03T17:50:30;11.70;66.10
5697;DHT22;2873;50.966;7.210;2023-04-03T17:52:55;11.70;66.80
5697;DHT22;2873;50.966;7.210;2023-04-03T17:55:21;11.60;67.00
5697;DHT22;2873;50.966;7.210;2023-04-03T17:57:47;11.50;67.40
5697;DHT22;2873;50.966;7.210;2023-04-03T18:00:16;11.30;67.30
5697;DHT22;2873;50.966;7.210;2023-04-03T18:02:42;11.30;67.90
5697;DHT22;2873;50.966;7.210;2023-04-03T18:05:08;11.30;68.60
5697;DHT22;2873;50.966;7.210;2023-04-03T18:07:35;11.10;68.80
5697;DHT22;2873;50.966;7.210;2023-04-03T18:10:01;10.90;69.10